sensor_id;sensor_type;location;lat;lon;timestamp;pressure;altitude;pressure_sealevel;temperature;humidity
24302;BME280;12421;49.732;20.078;2023-03-21T00:03:08;96784.34;;;8.13;81.70
24302;BME280;12421;49.732;20.078;2023-03-21T00:13:12;96768.39;;;8.19;81.61
24302;BME280;12421;49.732;20.078;2023-03-21T00:23:16;96758.62;;;8.22;81.98
24302;BME280;12421;49.732;20.078;2023-03-21T00:33:19;96758.25;;;8.30;81.77
24302;BME280;12421;49.732;20.078;2023-03-21T00:43:27;96759.10;;;8.34;81.57
24302;BME280;12421;49.732;20.078;2023-03-21T00:53:33;96755.24;;;8.35;81.35
24302;BME280;12421;49.732;20.078;2023-03-21T01:03:36;96749.34;;;8.18;81.93
24302;BME280;12421;49.732;20.078;2023-03-21T01:13:46;96746.58;;;8.14;82.08
24302;BME280;12421;49.732;20.078;2023-03-21T01:23:59;96745.31;;;8.28;82.21
24302;BME280;12421;49.732;20.078;2023-03-21T01:34:04;96741.25;;;8.35;81.81
24302;BME280;12421;49.732;20.078;2023-03-21T01:44:14;96735.22;;;8.14;82.17
24302;BME280;12421;49.732;20.078;2023-03-21T01:54:24;96732.99;;;7.98;82.62
24302;BME280;12421;49.732;20.078;2023-03-21T02:04:29;96738.21;;;8.07;82.61
24302;BME280;12421;49.732;20.078;2023-03-21T02:14:47;96732.80;;;8.07;82.02
24302;BME280;12421;49.732;20.078;2023-03-21T02:46:18;96727.45;;;7.92;81.96
24302;BME280;12421;49.732;20.078;2023-03-21T02:56:29;96737.08;;;7.82;82.63
24302;BME280;12421;49.732;20.078;2023-03-21T03:27:29;96743.11;;;8.06;82.09
24302;BME280;12421;49.732;20.078;2023-03-21T03:37:39;96740.52;;;7.97;82.12
24302;BME280;12421;49.732;20.078;2023-03-21T03:47:53;96729.16;;;7.96;82.82
24302;BME280;12421;49.732;20.078;2023-03-21T03:58:03;96722.83;;;8.05;83.24
24302;BME280;12421;49.732;20.078;2023-03-21T04:08:14;96729.61;;;8.14;83.37
24302;BME280;12421;49.732;20.078;2023-03-21T04:18:20;96733.61;;;8.20;82.83
24302;BME280;12421;49.732;20.078;2023-03-21T04:28:25;96740.77;;;8.19;83.16
24302;BME280;12421;49.732;20.078;2023-03-21T04:38:40;96738.52;;;8.16;82.89
24302;BME280;12421;49.732;20.078;2023-03-21T04:48:43;96744.83;;;8.13;83.21
24302;BME280;12421;49.732;20.078;2023-03-21T04:58:46;96741.16;;;8.14;83.39
24302;BME280;12421;49.732;20.078;2023-03-21T05:08:49;96749.16;;;8.24;83.60
24302;BME280;12421;49.732;20.078;2023-03-21T05:18:53;96753.81;;;8.40;83.25
24302;BME280;12421;49.732;20.078;2023-03-21T05:28:57;96743.83;;;8.45;82.84
24302;BME280;12421;49.732;20.078;2023-03-21T05:39:02;96749.23;;;8.44;82.78
24302;BME280;12421;49.732;20.078;2023-03-21T05:49:06;96750.06;;;8.54;82.70
24302;BME280;12421;49.732;20.078;2023-03-21T05:59:10;96763.28;;;8.68;82.63
24302;BME280;12421;49.732;20.078;2023-03-21T06:09:17;96758.07;;;8.88;82.41
24302;BME280;12421;49.732;20.078;2023-03-21T06:19:26;96759.08;;;9.18;82.12
24302;BME280;12421;49.732;20.078;2023-03-21T06:29:43;96754.27;;;9.46;81.66
24302;BME280;12421;49.732;20.078;2023-03-21T06:39:49;96756.90;;;9.62;81.35
24302;BME280;12421;49.732;20.078;2023-03-21T06:49:55;96758.83;;;9.80;80.77
24302;BME280;12421;49.732;20.078;2023-03-21T06:59:58;96765.75;;;10.04;80.18
24302;BME280;12421;49.732;20.078;2023-03-21T07:10:03;96774.20;;;10.19;79.48
24302;BME280;12421;49.732;20.078;2023-03-21T07:20:15;96779.99;;;10.34;78.96
24302;BME280;12421;49.732;20.078;2023-03-21T07:30:19;96786.45;;;10.49;77.97
24302;BME280;12421;49.732;20.078;2023-03-21T07:40:22;96776.17;;;10.69;77.47
24302;BME280;12421;49.732;20.078;2023-03-21T07:50:27;96773.21;;;10.92;76.54
24302;BME280;12421;49.732;20.078;2023-03-21T08:00:30;96770.68;;;11.30;75.63
24302;BME280;12421;49.732;20.078;2023-03-21T08:10:35;96773.40;;;11.68;73.86
24302;BME280;12421;49.732;20.078;2023-03-21T08:20:38;96765.05;;;12.27;72.83
24302;BME280;12421;49.732;20.078;2023-03-21T08:30:42;96758.75;;;13.06;70.75
24302;BME280;12421;49.732;20.078;2023-03-21T08:40:45;96763.07;;;13.47;69.25
24302;BME280;12421;49.732;20.078;2023-03-21T08:50:48;96778.61;;;13.74;67.98
24302;BME280;12421;49.732;20.078;2023-03-21T09:00:51;96786.68;;;13.96;66.72
24302;BME280;12421;49.732;20.078;2023-03-21T09:10:55;96792.55;;;14.34;66.01
24302;BME280;12421;49.732;20.078;2023-03-21T09:20:58;96792.02;;;14.08;64.80
24302;BME280;12421;49.732;20.078;2023-03-21T09:31:04;96788.15;;;14.01;64.97
24302;BME280;12421;49.732;20.078;2023-03-21T09:51:30;96792.83;;;13.56;63.50
24302;BME280;12421;49.732;20.078;2023-03-21T10:01:35;96797.61;;;12.79;64.81
24302;BME280;12421;49.732;20.078;2023-03-21T10:11:48;96795.60;;;12.81;66.25
24302;BME280;12421;49.732;20.078;2023-03-21T10:21:53;96794.02;;;13.14;65.62
24302;BME280;12421;49.732;20.078;2023-03-21T10:32:04;96795.58;;;12.98;65.60
24302;BME280;12421;49.732;20.078;2023-03-21T10:42:24;96798.26;;;12.65;66.31
24302;BME280;12421;49.732;20.078;2023-03-21T10:52:29;96805.41;;;12.25;66.91
24302;BME280;12421;49.732;20.078;2023-03-21T11:02:36;96815.04;;;11.69;67.94
24302;BME280;12421;49.732;20.078;2023-03-21T11:12:46;96819.87;;;10.83;70.44
24302;BME280;12421;49.732;20.078;2023-03-21T11:22:53;96821.06;;;10.60;72.50
24302;BME280;12421;49.732;20.078;2023-03-21T11:33:01;96808.45;;;11.30;73.64
24302;BME280;12421;49.732;20.078;2023-03-21T11:43:26;96803.98;;;12.07;72.38
24302;BME280;12421;49.732;20.078;2023-03-21T11:53:40;96797.98;;;12.69;71.42
24302;BME280;12421;49.732;20.078;2023-03-21T12:04:02;96790.71;;;13.04;69.60
24302;BME280;12421;49.732;20.078;2023-03-21T12:14:12;96784.70;;;12.96;69.17
24302;BME280;12421;49.732;20.078;2023-03-21T12:24:32;96774.13;;;13.13;68.08
24302;BME280;12421;49.732;20.078;2023-03-21T12:35:07;96768.95;;;13.38;67.63
24302;BME280;12421;49.732;20.078;2023-03-21T12:45:18;96759.76;;;13.73;66.02
24302;BME280;12421;49.732;20.078;2023-03-21T12:55:25;96755.74;;;13.91;64.27
24302;BME280;12421;49.732;20.078;2023-03-21T13:05:38;96753.73;;;14.07;63.61
24302;BME280;12421;49.732;20.078;2023-03-21T13:15:54;96754.69;;;14.05;62.78
24302;BME280;12421;49.732;20.078;2023-03-21T13:26:02;96746.65;;;13.75;62.51
24302;BME280;12421;49.732;20.078;2023-03-21T13:36:15;96748.92;;;13.20;63.12
24302;BME280;12421;49.732;20.078;2023-03-21T13:56:47;96742.91;;;12.66;64.09
24302;BME280;12421;49.732;20.078;2023-03-21T14:07:15;96738.87;;;12.90;64.11
24302;BME280;12421;49.732;20.078;2023-03-21T14:17:26;96734.88;;;12.87;63.86
24302;BME280;12421;49.732;20.078;2023-03-21T14:27:33;96728.36;;;12.79;64.29
24302;BME280;12421;49.732;20.078;2023-03-21T14:37:50;96717.30;;;12.93;64.65
24302;BME280;12421;49.732;20.078;2023-03-21T14:48:47;96706.38;;;12.93;63.92
24302;BME280;12421;49.732;20.078;2023-03-21T16:28:58;96729.81;;;10.58;69.38
24302;BME280;12421;49.732;20.078;2023-03-21T16:39:17;96725.59;;;10.34;70.86
24302;BME280;12421;49.732;20.078;2023-03-21T16:49:25;96721.49;;;10.11;72.17
24302;BME280;12421;49.732;20.078;2023-03-21T16:59:29;96732.80;;;10.03;72.87
24302;BME280;12421;49.732;20.078;2023-03-21T17:09:34;96736.45;;;9.90;73.32
24302;BME280;12421;49.732;20.078;2023-03-21T17:19:38;96741.95;;;9.67;74.07
24302;BME280;12421;49.732;20.078;2023-03-21T17:29:42;96746.05;;;9.62;74.74
24302;BME280;12421;49.732;20.078;2023-03-21T17:39:45;96751.49;;;9.60;75.27
24302;BME280;12421;49.732;20.078;2023-03-21T17:49:48;96757.64;;;9.41;75.60
24302;BME280;12421;49.732;20.078;2023-03-21T17:59:52;96768.66;;;9.22;76.53
24302;BME280;12421;49.732;20.078;2023-03-21T18:09:55;96774.41;;;9.26;76.99
24302;BME280;12421;49.732;20.078;2023-03-21T18:19:59;96781.38;;;9.32;77.43
24302;BME280;12421;49.732;20.078;2023-03-21T18:30:06;96787.45;;;9.39;77.33
24302;BME280;12421;49.732;20.078;2023-03-21T18:40:29;96787.45;;;9.38;77.52
24302;BME280;12421;49.732;20.078;2023-03-21T18:50:33;96789.76;;;9.34;77.67
24302;BME280;12421;49.732;20.078;2023-03-21T19:00:36;96780.54;;;9.26;77.70
24302;BME280;12421;49.732;20.078;2023-03-21T19:10:40;96782.20;;;8.93;78.28
24302;BME280;12421;49.732;20.078;2023-03-21T19:20:44;96787.34;;;8.81;78.63
24302;BME280;12421;49.732;20.078;2023-03-21T19:30:48;96799.16;;;8.65;79.16
24302;BME280;12421;49.732;20.078;2023-03-21T19:41:00;96801.92;;;8.72;79.27
24302;BME280;12421;49.732;20.078;2023-03-21T19:51:04;96801.36;;;8.79;79.02
24302;BME280;12421;49.732;20.078;2023-03-21T20:01:27;96806.39;;;8.58;79.48
24302;BME280;12421;49.732;20.078;2023-03-21T20:11:32;96801.23;;;8.34;80.12
24302;BME280;12421;49.732;20.078;2023-03-21T20:21:35;96807.23;;;8.22;80.88
24302;BME280;12421;49.732;20.078;2023-03-21T20:31:51;96803.73;;;8.16;81.14
24302;BME280;12421;49.732;20.078;2023-03-21T20:41:56;96799.42;;;8.04;81.47
24302;BME280;12421;49.732;20.078;2023-03-21T20:52:01;96799.63;;;7.90;81.76
24302;BME280;12421;49.732;20.078;2023-03-21T21:02:29;96798.59;;;7.89;82.34
24302;BME280;12421;49.732;20.078;2023-03-21T21:12:32;96803.26;;;8.05;81.80
24302;BME280;12421;49.732;20.078;2023-03-21T21:22:35;96800.09;;;8.11;81.60
24302;BME280;12421;49.732;20.078;2023-03-21T21:32:40;96806.39;;;8.10;81.45
24302;BME280;12421;49.732;20.078;2023-03-21T21:42:44;96811.80;;;8.12;81.21
24302;BME280;12421;49.732;20.078;2023-03-21T21:52:47;96805.71;;;8.00;81.00
24302;BME280;12421;49.732;20.078;2023-03-21T22:02:58;96797.95;;;7.54;81.65
24302;BME280;12421;49.732;20.078;2023-03-21T22:13:01;96794.47;;;7.26;82.44
24302;BME280;12421;49.732;20.078;2023-03-21T22:23:04;96797.63;;;7.21;82.93
24302;BME280;12421;49.732;20.078;2023-03-21T22:33:08;96796.04;;;7.08;82.95
24302;BME280;12421;49.732;20.078;2023-03-21T22:43:12;96794.64;;;7.03;82.97
24302;BME280;12421;49.732;20.078;2023-03-21T22:53:15;96786.80;;;7.06;83.18
24302;BME280;12421;49.732;20.078;2023-03-21T23:03:18;96784.02;;;7.02;82.73
24302;BME280;12421;49.732;20.078;2023-03-21T23:13:22;96777.36;;;6.88;82.73
24302;BME280;12421;49.732;20.078;2023-03-21T23:23:28;96783.61;;;6.70;82.67
24302;BME280;12421;49.732;20.078;2023-03-21T23:33:31;96779.59;;;6.57;83.13
24302;BME280;12421;49.732;20.078;2023-03-21T23:43:35;96779.23;;;6.53;83.40
24302;BME280;12421;49.732;20.078;2023-03-21T23:53:39;96773.09;;;6.42;82.96
